Time;durP1;ratioP1;P1;durP2;ratioP2;P2;SDS_P1;SDS_P2;PMS_P1;PMS_P2;Temp;Humidity;BMP_temperature;BMP_pressure;BME280_temperature;BME280_humidity;BME280_pressure;Samples;Min_cycle;Max_cycle;Signal;HPM_P1;HPM_P2
2022/02/15 00:02:05;;;;;;;17.40;6.32;;;;;;;-3.38;79.99;99748.81;4959408;28;20056;-64
2022/02/15 00:04:30;;;;;;;18.17;7.05;;;;;;;-3.26;80.63;99769.47;4991688;28;20050;-64
2022/02/15 00:06:56;;;;;;;20.42;8.13;;;;;;;-3.21;79.98;99767.53;4975702;28;20073;-65
2022/02/15 00:09:22;;;;;;;16.85;7.45;;;;;;;-3.21;80.35;99772.81;4975610;28;20128;-65
2022/02/15 00:11:48;;;;;;;18.15;7.20;;;;;;;-3.23;80.17;99769.34;4975629;28;20101;-64
2022/02/15 00:14:14;;;;;;;16.70;7.70;;;;;;;-3.21;80.41;99788.66;4975690;28;20058;-65
2022/02/15 00:16:40;;;;;;;15.23;6.93;;;;;;;-3.24;80.88;99777.34;4959322;28;20449;-64
2022/02/15 00:19:05;;;;;;;18.13;7.10;;;;;;;-3.28;80.73;99781.91;4975058;28;20140;-65
2022/02/15 00:21:32;;;;;;;21.27;8.65;;;;;;;-3.26;80.71;99774.75;4975274;28;20512;-66
2022/02/15 00:23:58;;;;;;;16.98;6.43;;;;;;;-3.30;80.63;99773.16;5007332;28;20073;-66
2022/02/15 00:26:24;;;;;;;17.83;7.28;;;;;;;-3.29;80.97;99785.47;5007631;28;20481;-65
2022/02/15 00:28:50;;;;;;;19.67;7.78;;;;;;;-3.29;81.14;99782.84;4959116;28;20054;-65
2022/02/15 00:31:16;;;;;;;19.13;8.23;;;;;;;-3.25;80.67;99771.22;4991343;28;20062;-64
2022/02/15 00:33:41;;;;;;;18.15;7.55;;;;;;;-3.24;80.73;99772.94;4960394;28;20470;-65
2022/02/15 00:36:07;;;;;;;18.98;8.55;;;;;;;-3.26;80.85;99776.53;4975444;28;20042;-64
2022/02/15 00:38:33;;;;;;;15.13;7.03;;;;;;;-3.29;81.44;99784.59;4975290;28;20394;-65
2022/02/15 00:41:03;;;;;;;20.75;7.15;;;;;;;-3.29;81.45;99785.47;4991073;28;20050;-65
2022/02/15 00:43:29;;;;;;;19.95;8.23;;;;;;;-3.25;81.38;99780.94;4975230;28;20101;-65
2022/02/15 00:45:55;;;;;;;19.80;7.75;;;;;;;-3.32;82.00;99780.31;4958716;28;20445;-64
2022/02/15 00:48:21;;;;;;;19.27;8.50;;;;;;;-3.29;81.74;99782.84;4975014;28;20077;-65
2022/02/15 00:50:46;;;;;;;21.25;7.93;;;;;;;-3.30;81.88;99783.72;4974844;28;20125;-65
2022/02/15 00:53:12;;;;;;;16.33;7.25;;;;;;;-3.33;81.88;99778.56;4991020;28;20073;-67
2022/02/15 00:55:38;;;;;;;17.95;7.68;;;;;;;-3.34;82.72;99782.13;4975449;28;20054;-65
2022/02/15 00:58:04;;;;;;;17.15;7.38;;;;;;;-3.47;82.71;99762.41;4959425;28;20502;-65
2022/02/15 01:00:30;;;;;;;19.70;8.90;;;;;;;-3.28;82.85;99797.75;4975615;28;20046;-65
2022/02/15 01:02:56;;;;;;;19.17;8.00;;;;;;;-3.39;82.67;99784.13;4992241;28;20061;-66
2022/02/15 01:05:22;;;;;;;19.83;8.48;;;;;;;-3.35;82.98;99800.72;4959413;28;20137;-66
2022/02/15 01:07:47;;;;;;;20.98;7.60;;;;;;;-3.38;83.30;99804.31;4976010;28;20560;-64
2022/02/15 01:10:13;;;;;;;20.20;8.77;;;;;;;-3.41;83.30;99789.44;4975871;28;20508;-67
2022/02/15 01:12:39;;;;;;;20.25;8.57;;;;;;;-3.41;83.74;99802.66;4974761;28;20065;-65
2022/02/15 01:15:08;;;;;;;20.42;8.70;;;;;;;-3.40;83.62;99803.50;4974866;28;20056;-65
2022/02/15 01:17:34;;;;;;;20.58;9.73;;;;;;;-3.46;83.96;99793.19;4958203;28;20089;-65
2022/02/15 01:20:00;;;;;;;20.13;8.57;;;;;;;-3.44;84.30;99805.44;4958743;28;20510;-65
2022/02/15 01:22:26;;;;;;;19.38;8.45;;;;;;;-3.45;84.43;99806.34;4958837;28;20057;-65
2022/02/15 01:24:51;;;;;;;20.52;9.55;;;;;;;-3.49;84.65;99803.88;4943222;28;20116;-63
2022/02/15 01:27:17;;;;;;;18.95;8.23;;;;;;;-3.48;84.95;99810.88;4958131;28;20038;-66
2022/02/15 01:29:43;;;;;;;22.77;9.13;;;;;;;-3.53;85.63;99804.94;4990465;28;20409;-65
2022/02/15 01:32:10;;;;;;;21.10;9.90;;;;;;;-3.56;85.45;99812.97;4974036;28;20549;-65
2022/02/15 01:34:35;;;;;;;18.63;8.55;;;;;;;-3.53;85.67;99815.50;4990626;28;20090;-64
2022/02/15 01:37:02;;;;;;;19.90;9.02;;;;;;;-3.53;85.73;99818.13;4990025;28;20069;-64
2022/02/15 01:39:28;;;;;;;19.95;9.02;;;;;;;-3.58;86.01;99815.69;4973801;28;20081;-65
2022/02/15 01:41:55;;;;;;;19.65;8.60;;;;;;;-3.61;86.39;99821.06;4957468;28;20053;-65
2022/02/15 01:44:21;;;;;;;22.92;9.18;;;;;;;-3.55;86.63;99819.97;4957839;28;20049;-64
2022/02/15 01:46:49;;;;;;;20.45;9.25;;;;;;;-3.60;86.83;99806.09;4974143;28;20050;-64
2022/02/15 01:49:14;;;;;;;22.83;9.90;;;;;;;-3.59;87.01;99813.06;4973941;28;20120;-66
2022/02/15 01:51:40;;;;;;;20.70;9.52;;;;;;;-3.56;87.16;99823.53;4974113;28;20200;-64
2022/02/15 01:54:06;;;;;;;22.70;10.52;;;;;;;-3.58;87.07;99828.00;4990548;28;20052;-66
2022/02/15 01:56:33;;;;;;;20.98;9.55;;;;;;;-3.59;87.55;99823.66;4991204;28;20046;-65
2022/02/15 01:59:02;;;;;;;20.65;9.88;;;;;;;-3.63;87.60;99823.75;4975683;28;20169;-65
2022/02/15 02:01:29;;;;;;;20.55;9.30;;;;;;;-3.69;87.99;99824.00;4974345;28;20053;-64
2022/02/15 02:05:47;;;;;;;23.80;9.38;;;;;;;-3.81;88.27;99798.03;4989770;28;20106;-65
2022/02/15 02:06:51;;;;;;;22.83;10.52;;;;;;;-3.66;88.45;99815.97;4963871;28;20050;-65
2022/02/15 02:09:17;;;;;;;19.17;8.70;;;;;;;-3.71;88.56;99823.19;4974657;28;20065;-65
2022/02/15 02:11:43;;;;;;;20.33;9.35;;;;;;;-3.72;88.82;99824.13;4959214;28;20061;-65
2022/02/15 02:14:17;;;;;;;21.48;10.23;;;;;;;-3.68;89.16;99841.56;4960701;28;20053;-64
2022/02/15 02:16:54;;;;;;;23.00;10.68;;;;;;;-3.70;88.98;99835.47;4990378;28;20046;-64
2022/02/15 02:19:25;;;;;;;20.13;10.63;;;;;;;-3.73;89.36;99832.97;4973408;28;20498;-65
2022/02/15 02:21:51;;;;;;;25.58;11.60;;;;;;;-3.72;89.93;99829.41;4957375;28;20077;-64
2022/02/15 02:24:18;;;;;;;19.88;9.45;;;;;;;-3.70;89.89;99832.81;4957673;28;20042;-65
2022/02/15 02:26:48;;;;;;;20.73;10.00;;;;;;;-3.69;90.27;99837.22;4957435;28;20100;-63
2022/02/15 02:29:14;;;;;;;25.33;11.35;;;;;;;-3.69;90.09;99834.56;4989359;28;20090;-63
2022/02/15 02:31:46;;;;;;;22.63;11.07;;;;;;;-3.74;90.18;99836.50;4957711;28;20529;-65
2022/02/15 02:34:15;;;;;;;22.42;10.85;;;;;;;-3.76;90.55;99848.94;4972876;28;20068;-65
2022/02/15 02:36:44;;;;;;;21.83;10.60;;;;;;;-3.79;90.83;99843.75;4973178;28;20173;-64
2022/02/15 02:39:11;;;;;;;25.17;11.82;;;;;;;-3.86;90.97;99847.53;4989311;28;20054;-66
2022/02/15 02:41:37;;;;;;;26.35;12.20;;;;;;;-3.78;91.17;99848.09;4941019;28;20279;-65
2022/02/15 02:44:03;;;;;;;23.45;11.52;;;;;;;-3.79;91.20;99851.69;4972550;28;20038;-64
2022/02/15 02:46:29;;;;;;;21.50;10.40;;;;;;;-3.78;91.33;99850.75;4972798;28;20418;-64
2022/02/15 02:48:55;;;;;;;25.00;11.23;;;;;;;-3.84;91.20;99844.81;4973055;28;20508;-64
2022/02/15 02:51:22;;;;;;;24.90;9.95;;;;;;;-3.89;91.87;99837.06;4957048;28;20050;-66
2022/02/15 02:53:48;;;;;;;23.25;8.95;;;;;;;-3.90;91.65;99845.94;4940986;28;20383;-65
2022/02/15 02:56:16;;;;;;;24.08;11.10;;;;;;;-3.82;92.24;99859.72;4957170;28;20050;-66
2022/02/15 02:58:41;;;;;;;21.85;9.43;;;;;;;-3.87;92.20;99856.38;4972779;28;20132;-65
2022/02/15 03:01:08;;;;;;;21.90;10.68;;;;;;;-3.85;92.63;99859.81;4973215;28;20112;-67
2022/02/15 03:03:39;;;;;;;25.63;12.10;;;;;;;-3.86;92.46;99844.91;4975275;28;20510;-67
2022/02/15 03:06:07;;;;;;;24.42;9.13;;;;;;;-3.86;92.75;99858.09;4959278;28;20391;-67
2022/02/15 03:08:34;;;;;;;24.25;11.05;;;;;;;-3.89;92.72;99858.19;4957381;28;20069;-64
2022/02/15 03:11:00;;;;;;;24.95;12.30;;;;;;;-3.84;92.81;99847.47;4956764;28;20050;-65
2022/02/15 03:13:37;;;;;;;23.20;11.07;;;;;;;-3.99;93.04;99835.69;4958605;28;20196;-64
2022/02/15 03:16:09;;;;;;;24.30;12.05;;;;;;;-3.84;93.29;99856.25;4942468;28;20042;-65
2022/02/15 03:18:35;;;;;;;24.33;11.93;;;;;;;-3.84;93.07;99858.88;4972286;28;20074;-64
2022/02/15 03:21:08;;;;;;;26.60;12.40;;;;;;;-3.89;92.96;99858.19;4988627;28;20078;-65
2022/02/15 03:23:35;;;;;;;23.98;11.55;;;;;;;-3.88;93.47;99862.56;4972884;28;20054;-65
2022/02/15 03:26:02;;;;;;;24.40;11.90;;;;;;;-3.83;92.90;99858.00;4956658;28;20042;-65
2022/02/15 03:28:30;;;;;;;23.85;12.20;;;;;;;-3.82;93.27;99859.72;4956985;28;20065;-64
2022/02/15 03:30:57;;;;;;;24.13;11.63;;;;;;;-3.86;93.54;99858.09;4976546;28;20062;-66
2022/02/15 03:33:24;;;;;;;23.95;11.00;;;;;;;-3.98;93.08;99848.00;4944665;28;20046;-65
2022/02/15 03:35:50;;;;;;;23.98;11.27;;;;;;;-3.93;93.57;99864.50;4975739;28;20148;-66
2022/02/15 03:38:17;;;;;;;23.35;10.98;;;;;;;-3.86;93.28;99873.94;4959835;28;20513;-65
2022/02/15 03:43:56;;;;;;;22.30;10.75;;;;;;;-3.89;93.45;99868.75;4969286;28;20461;-65
2022/02/15 03:46:27;;;;;;;25.05;13.00;;;;;;;-3.90;93.60;99861.78;4977903;28;20045;-65
2022/02/15 03:48:53;;;;;;;27.35;12.45;;;;;;;-3.87;93.31;99866.94;4959639;28;20567;-65
2022/02/15 03:51:20;;;;;;;28.08;13.52;;;;;;;-3.91;93.69;99862.69;4992134;28;20050;-65
2022/02/15 03:53:49;;;;;;;25.42;10.95;;;;;;;-3.92;93.71;99879.44;4960346;28;20415;-65
2022/02/15 03:56:16;;;;;;;22.83;10.38;;;;;;;-3.94;93.93;99873.38;4959744;28;20070;-66
2022/02/15 03:58:43;;;;;;;23.40;10.40;;;;;;;-3.93;94.00;99878.56;4991486;28;20046;-66
2022/02/15 04:01:14;;;;;;;25.20;11.52;;;;;;;-3.91;93.92;99870.63;4977189;28;20047;-65
2022/02/15 04:03:40;;;;;;;24.83;10.57;;;;;;;-4.01;93.74;99862.16;4973036;28;20038;-65
2022/02/15 04:06:06;;;;;;;23.33;11.82;;;;;;;-4.09;93.67;99851.00;4940276;28;20073;-65
2022/02/15 04:08:33;;;;;;;25.83;11.85;;;;;;;-3.97;93.85;99871.69;4969265;28;20093;-64
2022/02/15 04:10:59;;;;;;;26.95;11.48;;;;;;;-4.16;94.10;99855.63;4986741;28;20046;-65
2022/02/15 04:13:27;;;;;;;24.15;11.05;;;;;;;-4.17;94.11;99856.56;4980647;28;20043;-63
2022/02/15 04:15:54;;;;;;;25.05;10.63;;;;;;;-3.96;93.51;99883.09;4981298;28;20050;-65
2022/02/15 04:18:21;;;;;;;26.42;12.35;;;;;;;-4.04;93.34;99871.97;4970595;28;20051;-62
2022/02/15 04:20:47;;;;;;;24.83;10.80;;;;;;;-4.02;93.51;99888.59;4962797;28;20039;-64
2022/02/15 04:23:13;;;;;;;24.73;10.52;;;;;;;-4.05;93.50;99888.72;4977023;28;20042;-63
2022/02/15 04:25:39;;;;;;;25.17;11.75;;;;;;;-4.02;93.86;99888.59;4973856;28;20114;-63
2022/02/15 04:28:14;;;;;;;23.95;12.32;;;;;;;-4.05;93.40;99876.38;4927422;28;20049;-68
2022/02/15 04:30:40;;;;;;;25.52;12.23;;;;;;;-4.03;93.37;99882.44;4970107;28;20086;-65
2022/02/15 04:33:07;;;;;;;24.30;11.57;;;;;;;-4.02;93.33;99888.59;4971675;28;20077;-64
2022/02/15 04:35:33;;;;;;;26.60;11.85;;;;;;;-4.15;93.47;99854.72;4956104;28;20057;-64
2022/02/15 04:38:00;;;;;;;21.73;10.10;;;;;;;-4.08;93.35;99883.53;4971640;28;20126;-64
2022/02/15 04:40:27;;;;;;;21.02;9.85;;;;;;;-4.09;93.20;99897.66;4986744;28;20364;-64
2022/02/15 04:42:54;;;;;;;26.42;10.40;;;;;;;-4.07;93.40;99901.09;4971753;28;20498;-64
2022/02/15 04:45:20;;;;;;;21.77;9.75;;;;;;;-4.04;92.83;99895.72;4955864;28;20050;-64
2022/02/15 04:47:51;;;;;;;26.17;11.60;;;;;;;-4.08;92.52;99899.38;4971844;28;20062;-64
2022/02/15 04:50:19;;;;;;;22.17;10.65;;;;;;;-4.09;92.78;99902.94;4971943;28;20597;-64
2022/02/15 04:52:45;;;;;;;23.35;11.82;;;;;;;-4.09;92.42;99914.38;4955560;28;20150;-64
2022/02/15 04:55:17;;;;;;;22.27;10.45;;;;;;;-4.07;92.51;99922.22;4971871;28;20149;-64
2022/02/15 04:57:51;;;;;;;22.30;9.45;;;;;;;-4.18;92.95;99910.25;4955319;28;20113;-64
2022/02/15 05:00:17;;;;;;;23.33;11.07;;;;;;;-4.06;92.79;99922.16;4939490;28;20062;-64
2022/02/15 05:03:06;;;;;;;22.35;10.75;;;;;;;-3.97;92.11;99918.34;4965733;28;20502;-64
2022/02/15 05:05:32;;;;;;;22.20;10.70;;;;;;;-4.06;91.17;99914.22;4938857;28;20043;-63
2022/02/15 05:07:58;;;;;;;24.33;11.20;;;;;;;-4.00;91.75;99919.31;4954829;28;20038;-64
2022/02/15 05:10:25;;;;;;;22.02;8.23;;;;;;;-4.03;91.10;99913.28;4970792;28;20563;-64
2022/02/15 05:12:51;;;;;;;19.80;9.18;;;;;;;-4.00;91.27;99926.38;4955177;28;20050;-64
2022/02/15 05:15:32;;;;;;;18.45;8.82;;;;;;;-4.03;90.64;99926.47;4940979;28;20053;-64
2022/02/15 05:18:12;;;;;;;22.10;11.95;;;;;;;-3.93;90.68;99938.44;4940933;28;20039;-64
2022/02/15 05:20:43;;;;;;;;;;;;;;;-3.91;90.36;99923.44;4987473;28;20419;-63
2022/02/15 05:23:09;;;;;;;23.77;10.38;;;;;;;-3.93;89.88;99920.81;4987333;28;20016;-64
2022/02/15 05:25:39;;;;;;;23.85;10.50;;;;;;;-3.88;89.99;99924.19;4954492;28;20458;-64
2022/02/15 05:28:13;;;;;;;23.13;10.15;;;;;;;-3.79;88.95;99933.56;4987335;28;20039;-64
2022/02/15 05:30:39;;;;;;;22.13;9.15;;;;;;;-3.72;88.94;99929.78;4970564;28;20051;-65
2022/02/15 05:33:16;;;;;;;22.02;9.88;;;;;;;-3.56;87.95;99929.22;4956183;28;20046;-64
2022/02/15 05:35:47;;;;;;;19.45;8.65;;;;;;;-3.34;86.69;99930.16;4939344;28;20197;-65
2022/02/15 05:38:14;;;;;;;23.00;9.50;;;;;;;-3.04;84.82;99929.91;4970367;28;20489;-64
2022/02/15 05:40:44;;;;;;;21.67;10.85;;;;;;;-2.79;83.22;99924.53;4954652;28;20046;-65
2022/02/15 05:43:13;;;;;;;24.25;10.27;;;;;;;-2.80;82.31;99931.59;4970778;28;20046;-65
2022/02/15 05:45:41;;;;;;;23.50;9.77;;;;;;;-2.86;83.09;99941.56;4938624;28;20054;-65
2022/02/15 05:48:14;;;;;;;22.02;9.52;;;;;;;-2.02;79.01;99932.84;4939576;28;20054;-64
2022/02/15 05:50:50;;;;;;;18.98;8.13;;;;;;;-1.54;75.84;99936.94;4954891;28;20070;-64
2022/02/15 05:53:54;;;;;;;21.15;8.30;;;;;;;-1.44;73.58;99938.25;4967966;28;20039;-65
2022/02/15 05:56:25;;;;;;;18.15;8.25;;;;;;;-1.52;74.12;99913.88;4983074;28;20217;-65
2022/02/15 05:59:09;;;;;;;18.65;7.55;;;;;;;-0.98;72.21;99944.13;4962871;28;20097;-65
2022/02/15 06:01:56;;;;;;;17.08;8.13;;;;;;;-1.00;71.28;99922.09;4989792;28;20050;-64
2022/02/15 06:04:26;;;;;;;16.95;7.13;;;;;;;-0.45;69.69;99951.31;4958543;28;20525;-64
2022/02/15 06:07:00;;;;;;;18.83;8.50;;;;;;;-0.57;69.50;99957.22;4958674;28;20038;-64
2022/02/15 06:09:26;;;;;;;21.92;10.25;;;;;;;-0.36;68.60;99950.88;4973616;28;20050;-64
2022/02/15 06:11:54;;;;;;;19.95;8.05;;;;;;;-0.25;67.98;99958.31;4973684;28;20385;-64
2022/02/15 06:14:26;;;;;;;19.67;10.10;;;;;;;-0.45;68.31;99963.72;4960121;28;20050;-64
2022/02/15 06:16:52;;;;;;;16.77;8.23;;;;;;;-0.01;66.86;99961.53;4959035;28;20034;-64
2022/02/15 06:19:23;;;;;;;18.17;8.23;;;;;;;0.08;65.61;99907.94;4976518;28;20065;-65
2022/02/15 06:21:49;;;;;;;17.63;9.23;;;;;;;0.52;64.43;99963.28;4942667;28;20089;-66
2022/02/15 06:24:25;;;;;;;19.25;7.90;;;;;;;0.98;63.01;99974.13;4991102;28;20053;-66
2022/02/15 06:27:01;;;;;;;23.25;7.68;;;;;;;1.44;61.16;99968.94;4960480;28;20057;-64
2022/02/15 06:29:31;;;;;;;18.98;8.60;;;;;;;1.56;60.42;99970.91;4975167;28;20081;-64
2022/02/15 06:32:03;;;;;;;17.80;7.78;;;;;;;2.64;57.92;99958.34;4975017;28;20042;-64
2022/02/15 06:34:29;;;;;;;17.73;8.20;;;;;;;2.46;56.83;99982.63;4973433;28;20109;-64
2022/02/15 06:37:01;;;;;;;19.33;9.43;;;;;;;1.81;58.08;99975.72;4958112;28;20509;-64
2022/02/15 06:39:33;;;;;;;17.40;8.00;;;;;;;2.34;57.12;99981.53;4989303;28;20162;-64
2022/02/15 06:42:01;;;;;;;18.63;9.10;;;;;;;1.30;60.46;99975.03;4989545;28;20064;-65
2022/02/15 06:44:27;;;;;;;20.90;10.10;;;;;;;1.51;59.70;99991.63;4973653;28;20130;-65
2022/02/15 06:46:53;;;;;;;21.08;8.70;;;;;;;1.93;58.56;99984.81;4973530;28;20184;-65
2022/02/15 06:49:25;;;;;;;23.60;9.68;;;;;;;2.20;57.03;99989.50;4990211;28;20042;-65
2022/02/15 06:52:17;;;;;;;19.02;10.18;;;;;;;1.67;58.44;99984.47;4964094;28;20069;-65
2022/02/15 06:54:48;;;;;;;16.08;8.55;;;;;;;2.32;56.52;99981.63;4957875;28;20057;-65
2022/02/15 06:57:18;;;;;;;17.17;8.82;;;;;;;3.37;53.90;99981.44;4989021;28;20092;-65
2022/02/15 06:59:44;;;;;;;18.13;8.45;;;;;;;4.13;51.15;99990.75;4989166;28;20134;-65
2022/02/15 07:02:10;;;;;;;16.95;7.22;;;;;;;4.28;51.13;99987.09;4989052;28;20125;-65
2022/02/15 07:04:38;;;;;;;17.10;7.43;;;;;;;4.94;48.54;99994.13;4990829;28;20057;-65
2022/02/15 07:07:04;;;;;;;21.40;8.55;;;;;;;4.77;49.10;99986.41;4976477;28;20042;-65
2022/02/15 07:09:32;;;;;;;17.27;8.13;;;;;;;3.76;51.28;99983.34;4945737;28;20444;-65
2022/02/15 07:12:10;;;;;;;18.08;9.20;;;;;;;3.39;51.74;99987.53;4978214;28;20046;-65
2022/02/15 07:14:57;;;;;;;17.05;7.70;;;;;;;4.32;50.30;99985.91;4968654;28;20069;-65
2022/02/15 07:17:36;;;;;;;16.20;7.47;;;;;;;4.36;49.40;99987.41;4978412;28;20054;-65
2022/02/15 07:20:07;;;;;;;15.77;8.50;;;;;;;3.74;50.78;99984.41;4977105;28;20478;-65
2022/02/15 07:22:53;;;;;;;14.73;7.20;;;;;;;5.12;49.19;99997.34;4962838;28;20058;-65
2022/02/15 07:25:38;;;;;;;16.50;9.02;;;;;;;3.96;49.94;99999.91;4962902;28;20086;-65
2022/02/15 07:28:28;;;;;;;16.50;8.20;;;;;;;3.07;51.93;100006.44;4979048;28;20038;-65
2022/02/15 07:30:55;;;;;;;17.67;7.85;;;;;;;2.39;55.17;100003.47;5009750;28;20108;-65
2022/02/15 07:33:21;;;;;;;17.15;7.15;;;;;;;3.35;51.91;99999.38;4961154;28;20073;-66
2022/02/15 07:35:48;;;;;;;15.80;8.60;;;;;;;3.06;52.50;100004.72;4977171;28;20137;-66
2022/02/15 07:38:15;;;;;;;18.02;7.00;;;;;;;3.94;51.79;100000.00;4976556;28;20137;-63
2022/02/15 07:40:41;;;;;;;17.92;7.28;;;;;;;4.52;48.42;100014.84;4976049;28;20069;-65
2022/02/15 07:43:08;;;;;;;18.02;7.90;;;;;;;4.26;48.86;100005.91;4960080;28;20042;-65
2022/02/15 07:45:42;;;;;;;15.02;7.90;;;;;;;5.47;46.27;100008.22;4977689;28;20170;-65
2022/02/15 07:48:09;;;;;;;14.45;6.88;;;;;;;6.47;44.07;100007.16;4992138;28;20046;-65
2022/02/15 07:50:35;;;;;;;16.45;7.38;;;;;;;5.24;46.30;99992.94;4976415;28;20050;-65
2022/02/15 07:53:01;;;;;;;14.45;6.85;;;;;;;6.16;44.39;100008.56;4975799;28;20046;-65
2022/02/15 07:55:27;;;;;;;21.17;7.32;;;;;;;6.13;45.25;100003.44;4992382;28;20410;-65
2022/02/15 07:57:53;;;;;;;15.57;7.47;;;;;;;5.60;45.07;100002.84;4959937;28;20050;-66
2022/02/15 08:00:21;;;;;;;16.88;8.38;;;;;;;5.44;44.93;99988.81;4993333;28;20051;-65
2022/02/15 08:02:49;;;;;;;15.00;7.03;;;;;;;7.35;43.05;100006.59;4976336;28;20556;-64
2022/02/15 08:05:15;;;;;;;15.30;6.63;;;;;;;7.64;40.45;100000.69;4959456;28;20141;-66
2022/02/15 08:07:46;;;;;;;16.70;6.88;;;;;;;6.12;42.83;99992.81;4975946;28;20468;-66
2022/02/15 08:10:13;;;;;;;17.55;8.20;;;;;;;6.35;43.23;100000.00;4992156;28;20564;-66
2022/02/15 08:12:41;;;;;;;16.70;8.50;;;;;;;5.26;44.79;99988.31;4959889;28;20058;-65
2022/02/15 08:15:08;;;;;;;16.38;8.10;;;;;;;5.09;45.66;99997.56;4975823;28;20135;-64
2022/02/15 08:17:35;;;;;;;15.55;6.95;;;;;;;4.85;47.40;99994.75;4976057;28;20050;-65
2022/02/15 08:20:01;;;;;;;18.25;8.13;;;;;;;5.84;44.67;99992.13;4960701;28;20270;-66
2022/02/15 08:22:28;;;;;;;18.77;8.80;;;;;;;5.49;44.88;99984.84;4978974;28;20046;-66
2022/02/15 08:24:54;;;;;;;17.10;8.15;;;;;;;3.85;48.29;100000.63;4974789;28;20050;-65
2022/02/15 08:27:20;;;;;;;16.75;8.18;;;;;;;4.47;48.07;99990.22;4959677;28;20502;-66
2022/02/15 08:29:46;;;;;;;16.45;7.47;;;;;;;5.43;45.05;99990.66;4959438;28;20057;-66
2022/02/15 08:32:15;;;;;;;17.25;7.35;;;;;;;5.91;44.79;99985.34;4975845;28;20042;-65
2022/02/15 08:34:41;;;;;;;18.42;9.13;;;;;;;6.26;43.28;99992.66;4975887;28;20059;-66
2022/02/15 08:37:06;;;;;;;18.70;8.00;;;;;;;6.62;42.79;99985.44;4943332;28;20042;-66
2022/02/15 08:39:33;;;;;;;16.13;7.57;;;;;;;7.62;40.92;99994.59;4975483;28;20526;-65
2022/02/15 08:42:04;;;;;;;17.98;6.93;;;;;;;8.46;39.25;99993.03;4991402;28;20049;-66
2022/02/15 08:44:34;;;;;;;17.42;8.45;;;;;;;7.82;38.88;99988.41;4990887;28;20565;-66
2022/02/15 08:47:02;;;;;;;15.98;8.00;;;;;;;7.36;41.33;99997.53;4975263;28;20466;-66
2022/02/15 08:49:28;;;;;;;20.10;8.43;;;;;;;6.26;41.64;99993.50;4991219;28;20514;-65
2022/02/15 08:51:54;;;;;;;16.30;7.95;;;;;;;7.11;41.21;99995.06;4975076;28;20046;-66
2022/02/15 08:54:20;;;;;;;14.48;7.90;;;;;;;6.02;42.25;99993.50;4974984;28;20078;-66
2022/02/15 08:56:45;;;;;;;16.80;8.57;;;;;;;6.15;42.77;100004.19;4942496;28;20042;-65
2022/02/15 08:59:11;;;;;;;17.95;8.27;;;;;;;6.24;41.70;100003.50;4958390;28;20058;-66
2022/02/15 09:01:37;;;;;;;16.23;7.90;;;;;;;6.00;43.86;100000.81;4990827;28;20069;-65
2022/02/15 09:04:03;;;;;;;17.85;8.50;;;;;;;5.18;44.14;100001.41;4974698;28;20644;-65
2022/02/15 09:06:29;;;;;;;17.00;8.73;;;;;;;4.71;45.00;99986.81;4958127;28;20039;-65
2022/02/15 09:08:55;;;;;;;18.77;8.40;;;;;;;4.05;47.24;100002.81;4974678;28;20149;-65
2022/02/15 09:11:24;;;;;;;15.65;8.00;;;;;;;4.13;47.96;100009.47;4958947;28;20042;-65
2022/02/15 09:13:50;;;;;;;17.48;7.78;;;;;;;5.68;44.01;100000.47;4974671;28;20054;-65
2022/02/15 09:16:16;;;;;;;15.70;7.25;;;;;;;6.80;40.91;99973.28;4958346;28;20042;-65
2022/02/15 09:18:42;;;;;;;18.13;7.53;;;;;;;6.19;42.16;100004.81;4926530;28;20090;-65
2022/02/15 09:21:07;;;;;;;17.55;7.72;;;;;;;7.60;39.69;99991.16;4974581;28;20112;-65
2022/02/15 09:23:33;;;;;;;15.20;7.55;;;;;;;9.46;36.09;99970.91;4958934;28;20052;-65
2022/02/15 09:25:59;;;;;;;15.40;6.72;;;;;;;10.59;34.75;99993.88;5006340;28;20470;-65
2022/02/15 09:28:26;;;;;;;16.15;7.60;;;;;;;9.89;35.39;99989.53;4957485;28;20493;-65
2022/02/15 09:30:54;;;;;;;16.00;8.93;;;;;;;8.27;38.01;100007.16;4974098;28;20051;-65
2022/02/15 09:33:24;;;;;;;14.48;7.40;;;;;;;9.98;35.67;99998.63;4974327;28;20058;-65
2022/02/15 09:35:50;;;;;;;17.30;8.07;;;;;;;9.07;36.33;99989.63;4990168;28;20085;-65
2022/02/15 09:38:17;;;;;;;18.05;8.32;;;;;;;7.32;39.88;99992.53;4958037;28;20120;-66
2022/02/15 09:40:44;;;;;;;16.70;7.50;;;;;;;6.65;41.05;99993.25;4957816;28;20406;-65
2022/02/15 09:43:11;;;;;;;16.00;8.43;;;;;;;7.45;40.03;99993.25;4974166;28;20045;-65
2022/02/15 09:45:37;;;;;;;14.13;7.18;;;;;;;9.23;37.18;99960.31;4957648;28;20387;-65
2022/02/15 09:48:04;;;;;;;16.33;8.38;;;;;;;8.87;36.71;100004.81;4989889;28;20046;-65
2022/02/15 09:50:32;;;;;;;16.05;8.80;;;;;;;8.88;36.89;99999.28;4941617;28;20050;-65
2022/02/15 09:52:59;;;;;;;17.70;8.55;;;;;;;9.47;36.33;100000.50;4990076;28;20100;-66
2022/02/15 09:55:25;;;;;;;14.57;7.90;;;;;;;10.70;34.03;99998.28;4973752;28;20153;-65
2022/02/15 09:57:52;;;;;;;15.63;7.70;;;;;;;11.66;31.98;100009.84;4957627;28;20046;-65
2022/02/15 10:00:22;;;;;;;15.38;8.02;;;;;;;11.52;32.17;100008.53;4957332;28;20054;-66
2022/02/15 10:02:48;;;;;;;17.65;6.15;;;;;;;11.09;33.11;100000.94;4991115;28;20058;-66
2022/02/15 10:05:16;;;;;;;14.25;7.28;;;;;;;12.59;31.29;99997.03;4957442;28;20188;-66
2022/02/15 10:07:56;;;;;;;12.70;6.60;;;;;;;12.51;30.58;100005.13;4973240;28;20042;-66
2022/02/15 10:10:32;;;;;;;14.95;8.57;;;;;;;10.45;33.47;100009.69;4989967;28;20062;-66
2022/02/15 10:13:09;;;;;;;15.40;7.00;;;;;;;12.47;31.11;100017.28;4941669;28;20050;-66
2022/02/15 10:15:39;;;;;;;19.00;7.80;;;;;;;12.50;30.86;99997.97;4973157;28;20046;-65
2022/02/15 10:18:11;;;;;;;17.00;8.02;;;;;;;12.20;31.41;100019.00;4989616;28;20096;-67
2022/02/15 10:20:40;;;;;;;15.38;7.05;;;;;;;13.06;29.63;100014.91;4957179;28;20104;-66
2022/02/15 10:23:22;;;;;;;13.88;8.13;;;;;;;13.13;29.42;100019.53;4941246;28;20046;-67
2022/02/15 10:25:50;;;;;;;18.27;7.60;;;;;;;11.80;31.23;100009.38;4989180;28;20050;-66
2022/02/15 10:28:21;;;;;;;15.55;7.80;;;;;;;12.65;30.16;100018.13;4973523;28;20046;-66
2022/02/15 10:30:52;;;;;;;15.48;7.90;;;;;;;11.66;31.66;100020.69;4989850;28;20081;-66
2022/02/15 10:33:21;;;;;;;15.88;7.80;;;;;;;12.25;31.12;100016.72;4973410;28;20066;-66
2022/02/15 10:35:58;;;;;;;16.25;7.53;;;;;;;9.58;34.40;100010.31;4990372;28;20141;-66
2022/02/15 10:38:25;;;;;;;17.92;8.70;;;;;;;9.54;35.91;100019.66;4959475;28;20042;-66
2022/02/15 10:41:12;;;;;;;15.68;8.20;;;;;;;9.27;35.96;100015.72;4950183;28;20046;-66
2022/02/15 10:43:42;;;;;;;17.90;8.45;;;;;;;9.53;35.72;100026.06;4962664;28;20564;-66
2022/02/15 10:46:13;;;;;;;15.50;7.75;;;;;;;9.99;34.98;100003.06;4977387;28;20552;-67
2022/02/15 10:48:39;;;;;;;14.90;7.70;;;;;;;8.52;36.72;100023.97;4977501;28;20056;-66
2022/02/15 10:51:05;;;;;;;16.63;7.30;;;;;;;9.68;35.88;100030.09;4961507;28;20057;-66
2022/02/15 10:53:32;;;;;;;14.95;7.40;;;;;;;10.72;33.71;100031.47;4977380;28;20502;-66
2022/02/15 10:55:59;;;;;;;14.55;7.70;;;;;;;10.19;34.65;100029.09;4977272;28;20085;-66
2022/02/15 10:58:25;;;;;;;15.25;7.50;;;;;;;9.16;35.99;100018.50;4994545;28;20049;-66
2022/02/15 11:00:51;;;;;;;18.75;8.20;;;;;;;9.94;35.08;100032.31;4992809;28;20061;-66
2022/02/15 11:03:20;;;;;;;15.95;7.50;;;;;;;10.07;35.41;100030.22;4977071;28;20046;-66
2022/02/15 11:05:46;;;;;;;15.27;7.22;;;;;;;10.32;35.51;100029.75;4976660;28;20046;-66
2022/02/15 11:08:13;;;;;;;20.17;8.77;;;;;;;10.65;34.23;100030.34;4961020;28;20073;-66
2022/02/15 11:11:17;;;;;;;15.73;7.57;;;;;;;9.84;35.47;100025.06;4960636;28;20046;-66
2022/02/15 11:13:45;;;;;;;15.98;8.00;;;;;;;9.46;36.34;100024.91;4960043;28;20060;-66
2022/02/15 11:16:16;;;;;;;15.93;7.22;;;;;;;10.10;34.57;100002.94;4961058;28;20058;-67
2022/02/15 11:18:44;;;;;;;15.93;7.53;;;;;;;11.62;33.13;100029.28;4960882;28;20050;-66
2022/02/15 11:21:21;;;;;;;17.20;7.38;;;;;;;13.15;31.22;100022.94;4961211;28;20050;-67
2022/02/15 11:23:58;;;;;;;15.52;8.38;;;;;;;9.68;34.81;100019.31;4978053;28;20050;-66
2022/02/15 11:26:39;;;;;;;14.82;7.53;;;;;;;9.02;36.90;100026.91;4961541;28;20049;-67
2022/02/15 11:29:05;;;;;;;14.50;7.50;;;;;;;8.89;37.55;100016.34;4992766;28;20054;-66
2022/02/15 11:31:39;;;;;;;15.02;7.45;;;;;;;9.53;36.96;100020.66;4960542;28;20214;-66
2022/02/15 11:34:07;;;;;;;14.30;8.07;;;;;;;9.44;36.39;99987.25;4976520;28;20126;-66
2022/02/15 11:36:53;;;;;;;14.73;7.60;;;;;;;9.48;36.79;100022.94;4976993;28;20374;-66